sensor_id;sensor_type;location;lat;lon;timestamp;pressure;altitude;pressure_sealevel;temperature;humidity
9439;BME280;5176;42.622;25.386;2022-10-17T18:43:12;98876.09;;;12.39;66.24
9439;BME280;5176;42.622;25.386;2022-10-17T18:45:41;98874.03;;;12.45;65.54
9439;BME280;5176;42.622;25.386;2022-10-17T18:48:10;98876.09;;;12.58;65.17
9439;BME280;5176;42.622;25.386;2022-10-17T18:50:39;98883.84;;;12.21;65.73
9439;BME280;5176;42.622;25.386;2022-10-17T18:53:08;98885.50;;;12.04;67.42
9439;BME280;5176;42.622;25.386;2022-10-17T18:55:38;98887.41;;;11.80;67.63
9439;BME280;5176;42.622;25.386;2022-10-17T18:58:07;98881.72;;;12.11;66.20
9439;BME280;5176;42.622;25.386;2022-10-17T19:00:38;98888.38;;;12.38;64.72
9439;BME280;5176;42.622;25.386;2022-10-17T19:03:07;98892.25;;;12.11;65.53
9439;BME280;5176;42.622;25.386;2022-10-17T19:05:37;98892.84;;;12.36;64.30
9439;BME280;5176;42.622;25.386;2022-10-17T19:08:06;98892.06;;;12.34;64.64
9439;BME280;5176;42.622;25.386;2022-10-17T19:10:35;98885.47;;;12.05;65.53
9439;BME280;5176;42.622;25.386;2022-10-17T19:13:04;98885.34;;;11.88;66.70
9439;BME280;5176;42.622;25.386;2022-10-17T19:15:33;98882.22;;;11.58;68.41
9439;BME280;5176;42.622;25.386;2022-10-17T19:18:04;98898.31;;;11.70;67.04
9439;BME280;5176;42.622;25.386;2022-10-17T19:20:32;98891.13;;;11.54;68.05
9439;BME280;5176;42.622;25.386;2022-10-17T19:23:01;98897.81;;;11.61;67.25
9439;BME280;5176;42.622;25.386;2022-10-17T19:25:29;98895.38;;;11.56;67.45
9439;BME280;5176;42.622;25.386;2022-10-17T19:28:00;98900.56;;;11.37;67.19
9439;BME280;5176;42.622;25.386;2022-10-17T19:30:29;98902.75;;;11.68;65.54
9439;BME280;5176;42.622;25.386;2022-10-17T19:32:57;98904.00;;;11.60;65.48
9439;BME280;5176;42.622;25.386;2022-10-17T19:35:28;98911.72;;;11.42;66.06
9439;BME280;5176;42.622;25.386;2022-10-17T19:37:56;98907.63;;;11.57;65.78
9439;BME280;5176;42.622;25.386;2022-10-17T19:40:25;98910.34;;;11.54;65.91
9439;BME280;5176;42.622;25.386;2022-10-17T19:42:54;98914.97;;;11.69;64.86
9439;BME280;5176;42.622;25.386;2022-10-17T19:45:23;98919.13;;;11.33;65.50
9439;BME280;5176;42.622;25.386;2022-10-17T19:47:52;98923.81;;;11.25;66.35
9439;BME280;5176;42.622;25.386;2022-10-17T19:50:22;98928.09;;;11.27;66.16
9439;BME280;5176;42.622;25.386;2022-10-17T19:52:52;98922.53;;;11.13;66.86
9439;BME280;5176;42.622;25.386;2022-10-17T19:55:21;98920.56;;;11.40;64.82
9439;BME280;5176;42.622;25.386;2022-10-17T19:57:50;98922.72;;;11.52;63.80
9439;BME280;5176;42.622;25.386;2022-10-17T20:00:19;98922.22;;;11.21;64.42
9439;BME280;5176;42.622;25.386;2022-10-17T20:02:48;98923.81;;;11.25;64.58
9439;BME280;5176;42.622;25.386;2022-10-17T20:05:16;98926.44;;;11.25;64.48
9439;BME280;5176;42.622;25.386;2022-10-17T20:07:45;98920.91;;;11.10;65.80
9439;BME280;5176;42.622;25.386;2022-10-17T20:10:15;98931.38;;;11.10;65.85
9439;BME280;5176;42.622;25.386;2022-10-17T20:12:44;98927.63;;;10.94;66.36
9439;BME280;5176;42.622;25.386;2022-10-17T20:15:13;98934.00;;;10.65;68.74
9439;BME280;5176;42.622;25.386;2022-10-17T20:17:42;98930.78;;;11.04;66.28
9439;BME280;5176;42.622;25.386;2022-10-17T20:20:10;98924.94;;;10.50;68.72
9439;BME280;5176;42.622;25.386;2022-10-17T20:22:39;98924.97;;;10.72;68.51
9439;BME280;5176;42.622;25.386;2022-10-17T20:25:08;98927.84;;;11.11;65.90
9439;BME280;5176;42.622;25.386;2022-10-17T20:27:38;98924.59;;;11.05;66.14
9439;BME280;5176;42.622;25.386;2022-10-17T20:30:08;98921.50;;;10.72;67.06
9439;BME280;5176;42.622;25.386;2022-10-17T20:32:37;98918.84;;;10.95;66.58
9439;BME280;5176;42.622;25.386;2022-10-17T20:35:06;98925.78;;;10.96;65.72
9439;BME280;5176;42.622;25.386;2022-10-17T20:37:36;98925.47;;;10.82;67.55
9439;BME280;5176;42.622;25.386;2022-10-17T20:40:06;98922.28;;;10.74;67.03
9439;BME280;5176;42.622;25.386;2022-10-17T20:42:35;98927.34;;;10.55;68.62
9439;BME280;5176;42.622;25.386;2022-10-17T20:45:06;98917.84;;;10.02;71.22
9439;BME280;5176;42.622;25.386;2022-10-17T20:47:35;98919.66;;;10.27;70.65
9439;BME280;5176;42.622;25.386;2022-10-17T20:50:04;98916.72;;;10.59;68.61
9439;BME280;5176;42.622;25.386;2022-10-17T20:52:33;98914.97;;;10.35;68.40
9439;BME280;5176;42.622;25.386;2022-10-17T20:55:03;98921.13;;;9.84;70.85
9439;BME280;5176;42.622;25.386;2022-10-17T20:57:32;98917.28;;;9.68;72.47
9439;BME280;5176;42.622;25.386;2022-10-17T21:00:01;98912.66;;;10.01;71.09
9439;BME280;5176;42.622;25.386;2022-10-17T21:02:31;98899.03;;;9.66;72.38
9439;BME280;5176;42.622;25.386;2022-10-17T21:05:00;98911.31;;;9.64;73.00
9439;BME280;5176;42.622;25.386;2022-10-17T21:07:28;98909.38;;;9.69;72.57
9439;BME280;5176;42.622;25.386;2022-10-17T21:09:57;98913.22;;;9.86;71.53
9439;BME280;5176;42.622;25.386;2022-10-17T21:12:26;98913.44;;;9.53;73.04
9439;BME280;5176;42.622;25.386;2022-10-17T21:14:54;98914.78;;;9.91;71.23
9439;BME280;5176;42.622;25.386;2022-10-17T21:17:23;98915.44;;;9.96;69.85
9439;BME280;5176;42.622;25.386;2022-10-17T21:19:53;98911.41;;;9.61;70.95
9439;BME280;5176;42.622;25.386;2022-10-17T21:22:23;98919.19;;;9.63;71.54
9439;BME280;5176;42.622;25.386;2022-10-17T21:24:52;98905.25;;;9.36;72.54
9439;BME280;5176;42.622;25.386;2022-10-17T21:27:20;98909.63;;;9.62;71.14
9439;BME280;5176;42.622;25.386;2022-10-17T21:29:49;98917.03;;;9.49;72.14
9439;BME280;5176;42.622;25.386;2022-10-17T21:32:18;98913.75;;;9.69;71.00
9439;BME280;5176;42.622;25.386;2022-10-17T21:34:47;98910.41;;;9.65;71.46
9439;BME280;5176;42.622;25.386;2022-10-17T21:37:17;98906.16;;;9.61;70.60
9439;BME280;5176;42.622;25.386;2022-10-17T21:39:46;98905.56;;;9.53;70.78
9439;BME280;5176;42.622;25.386;2022-10-17T21:42:14;98903.59;;;9.60;71.09
9439;BME280;5176;42.622;25.386;2022-10-17T21:44:43;98904.47;;;9.60;70.05
9439;BME280;5176;42.622;25.386;2022-10-17T21:47:12;98899.94;;;9.65;70.51
9439;BME280;5176;42.622;25.386;2022-10-17T21:49:41;98884.84;;;9.47;71.00
9439;BME280;5176;42.622;25.386;2022-10-17T21:52:11;98900.00;;;9.64;70.40
9439;BME280;5176;42.622;25.386;2022-10-17T21:54:42;98900.97;;;9.86;69.10
9439;BME280;5176;42.622;25.386;2022-10-17T21:57:10;98904.66;;;9.80;69.32
9439;BME280;5176;42.622;25.386;2022-10-17T21:59:39;98900.72;;;9.67;69.79
9439;BME280;5176;42.622;25.386;2022-10-17T22:02:08;98903.75;;;9.55;70.69
9439;BME280;5176;42.622;25.386;2022-10-17T22:04:36;98901.41;;;9.47;70.39
9439;BME280;5176;42.622;25.386;2022-10-17T22:07:05;98903.06;;;9.23;71.21
9439;BME280;5176;42.622;25.386;2022-10-17T22:09:34;98903.47;;;9.64;69.17
9439;BME280;5176;42.622;25.386;2022-10-17T22:12:04;98901.16;;;9.80;67.83
9439;BME280;5176;42.622;25.386;2022-10-17T22:14:33;98897.22;;;9.42;70.25
9439;BME280;5176;42.622;25.386;2022-10-17T22:17:01;98895.81;;;9.32;70.88
9439;BME280;5176;42.622;25.386;2022-10-17T22:19:31;98898.16;;;9.13;72.69
9439;BME280;5176;42.622;25.386;2022-10-17T22:22:00;98894.03;;;9.06;72.61
9439;BME280;5176;42.622;25.386;2022-10-17T22:24:28;98894.75;;;9.09;72.23
9439;BME280;5176;42.622;25.386;2022-10-17T22:26:57;98896.47;;;8.82;74.40
9439;BME280;5176;42.622;25.386;2022-10-17T22:29:27;98896.59;;;8.79;74.13
9439;BME280;5176;42.622;25.386;2022-10-17T22:31:56;98893.59;;;8.62;74.85
9439;BME280;5176;42.622;25.386;2022-10-17T22:34:25;98893.53;;;8.34;76.29
9439;BME280;5176;42.622;25.386;2022-10-17T22:36:53;98892.41;;;8.44;76.40
9439;BME280;5176;42.622;25.386;2022-10-17T22:39:22;98889.47;;;8.84;74.31
9439;BME280;5176;42.622;25.386;2022-10-17T22:41:51;98887.28;;;8.98;72.73
9439;BME280;5176;42.622;25.386;2022-10-17T22:44:19;98888.97;;;8.99;72.39
9439;BME280;5176;42.622;25.386;2022-10-17T22:46:50;98882.47;;;9.13;72.11
9439;BME280;5176;42.622;25.386;2022-10-17T22:49:19;98878.03;;;9.15;71.76
9439;BME280;5176;42.622;25.386;2022-10-17T22:51:47;98879.00;;;9.12;71.02
9439;BME280;5176;42.622;25.386;2022-10-17T22:54:16;98880.84;;;9.09;70.31
9439;BME280;5176;42.622;25.386;2022-10-17T22:56:45;98881.75;;;8.80;72.96
9439;BME280;5176;42.622;25.386;2022-10-17T22:59:13;98882.47;;;9.13;69.85
9439;BME280;5176;42.622;25.386;2022-10-17T23:01:42;98881.03;;;8.74;71.38
9439;BME280;5176;42.622;25.386;2022-10-17T23:04:12;98872.81;;;8.87;70.97
9439;BME280;5176;42.622;25.386;2022-10-17T23:06:41;98878.41;;;8.74;71.79
9439;BME280;5176;42.622;25.386;2022-10-17T23:09:11;98879.94;;;8.21;74.34
9439;BME280;5176;42.622;25.386;2022-10-17T23:11:39;98876.66;;;7.82;76.68
9439;BME280;5176;42.622;25.386;2022-10-17T23:14:08;98877.38;;;7.56;78.04
9439;BME280;5176;42.622;25.386;2022-10-17T23:16:37;98873.50;;;7.36;77.78
9439;BME280;5176;42.622;25.386;2022-10-17T23:19:05;98881.28;;;7.02;79.85
9439;BME280;5176;42.622;25.386;2022-10-17T23:21:35;98872.75;;;7.31;78.35
9439;BME280;5176;42.622;25.386;2022-10-17T23:24:04;98881.59;;;6.89;81.48
9439;BME280;5176;42.622;25.386;2022-10-17T23:26:33;98884.94;;;7.31;80.40
9439;BME280;5176;42.622;25.386;2022-10-17T23:29:02;98879.41;;;7.07;81.15
9439;BME280;5176;42.622;25.386;2022-10-17T23:31:31;98873.38;;;7.43;79.32
9439;BME280;5176;42.622;25.386;2022-10-17T23:34:00;98881.91;;;7.12;80.16
9439;BME280;5176;42.622;25.386;2022-10-17T23:36:28;98877.31;;;7.23;80.43
9439;BME280;5176;42.622;25.386;2022-10-17T23:38:59;98864.53;;;7.13;81.75
9439;BME280;5176;42.622;25.386;2022-10-17T23:41:26;98865.94;;;6.89;83.27
9439;BME280;5176;42.622;25.386;2022-10-17T23:43:55;98875.41;;;6.93;83.45
9439;BME280;5176;42.622;25.386;2022-10-17T23:46:24;98863.47;;;7.20;81.96
9439;BME280;5176;42.622;25.386;2022-10-17T23:48:53;98863.19;;;7.32;80.86
9439;BME280;5176;42.622;25.386;2022-10-17T23:51:21;98863.53;;;7.18;82.37
9439;BME280;5176;42.622;25.386;2022-10-17T23:53:50;98865.22;;;7.19;82.08
9439;BME280;5176;42.622;25.386;2022-10-17T23:56:20;98859.59;;;7.36;81.22
9439;BME280;5176;42.622;25.386;2022-10-17T23:58:48;98862.03;;;7.42;80.74
